createdAt,value
2022-12-24T00:01:37.815Z,-3.80
2022-12-24T00:04:06.508Z,-3.60
2022-12-24T00:06:35.601Z,-3.50
2022-12-24T00:09:04.303Z,-3.50
2022-12-24T00:11:32.849Z,-3.40
2022-12-24T00:14:01.610Z,-3.60
2022-12-24T00:16:30.065Z,-3.50
2022-12-24T00:18:58.491Z,-3.50
2022-12-24T00:21:26.996Z,-3.40
2022-12-24T00:23:55.528Z,-3.40
2022-12-24T00:26:24.019Z,-3.50
2022-12-24T00:28:52.541Z,-3.40
2022-12-24T00:31:21.102Z,-3.80
2022-12-24T00:33:50.826Z,-3.50
2022-12-24T00:36:20.156Z,-3.50
2022-12-24T00:38:48.984Z,-3.40
2022-12-24T00:41:27.028Z,-3.60
2022-12-24T00:44:01.161Z,-3.70
2022-12-24T00:46:32.161Z,-3.60
2022-12-24T00:49:00.768Z,-3.70
2022-12-24T00:51:29.818Z,-3.90
2022-12-24T00:53:58.573Z,-3.80
2022-12-24T00:56:27.566Z,-4.20
2022-12-24T00:58:56.556Z,-3.70
2022-12-24T01:01:25.594Z,-4.00
2022-12-24T01:04:14.439Z,-3.70
2022-12-24T01:06:42.913Z,-4.00
2022-12-24T01:09:11.483Z,-4.00
2022-12-24T01:11:39.970Z,-4.00
2022-12-24T01:14:08.403Z,-3.70
2022-12-24T01:16:36.798Z,-4.10
2022-12-24T01:19:05.502Z,-3.80
2022-12-24T01:21:33.955Z,-3.50
2022-12-24T01:24:02.417Z,-3.50
2022-12-24T01:26:30.800Z,-3.40
2022-12-24T01:29:00.314Z,-3.50
2022-12-24T01:31:28.873Z,-3.50
2022-12-24T01:33:57.339Z,-3.70
2022-12-24T01:36:25.781Z,-3.40
2022-12-24T01:38:54.178Z,-3.40
2022-12-24T01:41:43.251Z,-3.50
2022-12-24T01:44:33.111Z,-3.20
2022-12-24T01:47:04.489Z,-3.30
2022-12-24T01:49:33.053Z,-3.10
2022-12-24T01:52:13.994Z,-3.30
2022-12-24T01:54:50.953Z,-3.20
2022-12-24T01:57:41.375Z,-3.10
2022-12-24T02:00:14.167Z,-3.30
2022-12-24T02:02:46.127Z,-3.30
2022-12-24T02:05:24.760Z,-3.10
2022-12-24T02:07:53.523Z,-3.60
2022-12-24T02:10:21.995Z,-3.60
2022-12-24T02:12:51.006Z,-3.40
2022-12-24T02:15:21.280Z,-3.40
2022-12-24T02:18:15.785Z,-3.30
2022-12-24T02:21:01.197Z,-3.50
2022-12-24T02:24:03.692Z,-3.30
2022-12-24T02:26:38.384Z,-3.70
2022-12-24T02:29:25.326Z,-3.80
2022-12-24T02:32:14.685Z,-3.30
2022-12-24T02:34:51.809Z,-3.50
2022-12-24T02:37:32.457Z,-3.30
2022-12-24T02:40:16.023Z,-3.70
2022-12-24T02:42:50.398Z,-3.40
2022-12-24T02:45:41.580Z,-3.40
2022-12-24T02:48:11.569Z,-3.30
2022-12-24T02:50:40.105Z,-3.20
2022-12-24T02:53:11.676Z,-3.40
2022-12-24T02:55:43.163Z,-3.20
2022-12-24T02:58:17.414Z,-3.30
2022-12-24T03:01:17.815Z,-3.30
2022-12-24T03:04:03.337Z,-3.50
2022-12-24T03:07:22.568Z,-3.30
2022-12-24T03:10:15.614Z,-3.40
2022-12-24T03:12:51.607Z,-3.40
2022-12-24T03:15:22.437Z,-3.10
2022-12-24T03:17:53.464Z,-3.10
2022-12-24T03:20:31.957Z,-3.10
2022-12-24T03:23:00.471Z,-3.30
2022-12-24T03:25:29.103Z,-3.00
2022-12-24T03:27:58.756Z,-3.10
2022-12-24T03:30:28.037Z,-3.20
2022-12-24T03:32:56.453Z,-3.00
2022-12-24T03:35:24.922Z,-2.80
2022-12-24T03:37:53.890Z,-2.90
2022-12-24T03:40:22.335Z,-3.10
2022-12-24T03:42:50.743Z,-3.00
2022-12-24T03:45:19.729Z,-2.80
2022-12-24T03:47:48.125Z,-2.90
2022-12-24T03:50:16.571Z,-2.90
2022-12-24T03:52:45.068Z,-3.20
2022-12-24T03:55:13.444Z,-2.90
2022-12-24T03:57:41.836Z,-2.90
2022-12-24T04:00:11.010Z,-3.10
2022-12-24T04:02:39.559Z,-3.10
2022-12-24T04:05:09.497Z,-3.00
2022-12-24T04:07:38.180Z,-2.90
2022-12-24T04:10:06.985Z,-3.00
2022-12-24T04:12:35.372Z,-2.90
2022-12-24T04:15:03.843Z,-3.00
2022-12-24T04:17:32.407Z,-2.90
2022-12-24T04:20:00.866Z,-2.90
2022-12-24T04:22:29.344Z,-3.00
2022-12-24T04:24:57.721Z,-2.70
2022-12-24T04:27:30.446Z,-2.70
2022-12-24T04:29:59.729Z,-2.70
2022-12-24T04:32:28.892Z,-2.60
2022-12-24T04:34:57.345Z,-2.40
2022-12-24T04:37:25.786Z,-2.30
2022-12-24T04:39:54.163Z,-2.40
2022-12-24T04:42:22.589Z,-2.20
2022-12-24T04:44:50.996Z,-2.20
2022-12-24T04:47:19.393Z,-2.20
2022-12-24T04:49:47.755Z,-2.20
2022-12-24T04:52:16.145Z,-2.10
2022-12-24T04:54:44.531Z,-2.30
2022-12-24T04:57:12.946Z,-2.10
2022-12-24T04:59:41.353Z,-2.10
2022-12-24T05:02:09.884Z,-2.10
2022-12-24T05:04:38.455Z,-2.10
2022-12-24T05:07:06.877Z,-2.10
2022-12-24T05:09:35.375Z,-2.10
2022-12-24T05:12:03.747Z,-1.70
2022-12-24T05:14:32.180Z,-2.10
2022-12-24T05:17:00.704Z,-2.10
2022-12-24T05:19:29.135Z,-2.10
2022-12-24T05:22:16.077Z,-2.10
2022-12-24T05:25:02.806Z,-2.10
2022-12-24T05:27:31.574Z,-2.10
2022-12-24T05:29:59.939Z,-1.90
2022-12-24T05:32:29.500Z,-2.10
2022-12-24T05:34:57.928Z,-2.10
2022-12-24T05:37:26.302Z,-2.30
2022-12-24T05:39:54.693Z,-2.40
2022-12-24T05:42:23.165Z,-2.10
2022-12-24T05:44:51.548Z,-2.40
2022-12-24T05:47:19.934Z,-2.30
2022-12-24T05:49:48.334Z,-2.10
2022-12-24T05:52:17.558Z,-2.10
2022-12-24T05:54:45.944Z,-2.10
2022-12-24T05:57:14.464Z,-2.30
2022-12-24T05:59:42.890Z,-2.40
2022-12-24T06:02:11.291Z,-2.20
2022-12-24T06:04:39.895Z,-2.10
2022-12-24T06:07:08.303Z,-2.30
2022-12-24T06:09:36.656Z,-2.40
2022-12-24T06:12:05.261Z,-2.30
2022-12-24T06:14:33.851Z,-2.60
2022-12-24T06:17:02.257Z,-2.50
2022-12-24T06:19:30.732Z,-2.50
2022-12-24T06:21:59.108Z,-2.50
2022-12-24T06:24:27.515Z,-2.50
2022-12-24T06:26:56.016Z,-2.30
2022-12-24T06:29:27.116Z,-2.50
2022-12-24T06:31:55.884Z,-2.60
2022-12-24T06:34:24.353Z,-2.30
2022-12-24T06:36:52.803Z,-2.40
2022-12-24T06:39:21.213Z,-2.30
2022-12-24T06:41:49.623Z,-2.40
2022-12-24T06:44:18.033Z,-2.20
2022-12-24T06:46:46.510Z,-2.20
2022-12-24T06:49:14.911Z,-2.30
2022-12-24T06:51:43.305Z,-2.30
2022-12-24T06:54:11.698Z,-2.40
2022-12-24T06:56:40.224Z,-2.20
2022-12-24T06:59:08.603Z,-2.00
2022-12-24T07:01:37.633Z,-2.10
2022-12-24T07:04:06.235Z,-2.10
2022-12-24T07:06:34.688Z,-2.10
2022-12-24T07:09:03.087Z,-2.10
2022-12-24T07:11:31.459Z,-2.10
2022-12-24T07:13:59.862Z,-2.10
2022-12-24T07:16:28.457Z,-1.70
2022-12-24T07:18:56.910Z,-1.80
2022-12-24T07:21:25.277Z,-1.80
2022-12-24T07:23:53.676Z,-1.80
2022-12-24T07:26:22.075Z,-1.80
2022-12-24T07:28:50.438Z,-1.70
2022-12-24T07:31:19.011Z,-1.50
2022-12-24T07:33:47.477Z,-1.40
2022-12-24T07:36:20.903Z,-1.60
2022-12-24T07:38:50.109Z,-1.60
2022-12-24T07:41:18.685Z,-1.60
2022-12-24T07:43:47.368Z,-1.50
2022-12-24T07:46:15.945Z,-1.70
2022-12-24T07:48:44.524Z,-1.60
2022-12-24T07:51:13.052Z,-1.70
2022-12-24T07:53:48.130Z,-1.60
2022-12-24T07:56:17.396Z,-1.60
2022-12-24T07:58:45.861Z,-1.60
2022-12-24T08:01:14.626Z,-1.40
2022-12-24T08:03:43.347Z,-1.40
2022-12-24T08:06:12.684Z,-1.50
2022-12-24T08:08:41.217Z,-1.30
2022-12-24T08:11:09.750Z,-1.30
2022-12-24T08:13:38.319Z,-1.20
2022-12-24T08:16:07.298Z,-1.40
2022-12-24T08:18:35.747Z,-1.40
2022-12-24T08:21:04.186Z,-1.60
2022-12-24T08:23:32.572Z,-1.60
2022-12-24T08:26:01.022Z,-1.50
2022-12-24T08:28:29.759Z,-1.40
2022-12-24T08:30:58.122Z,-1.60
2022-12-24T08:33:26.914Z,-1.40
2022-12-24T08:35:56.803Z,-1.60
2022-12-24T08:38:25.868Z,-1.50
2022-12-24T08:40:55.407Z,-1.80
2022-12-24T08:43:24.209Z,-1.60
2022-12-24T08:45:52.890Z,-1.60
2022-12-24T08:48:21.614Z,-1.60
2022-12-24T08:50:50.043Z,-1.50
2022-12-24T08:53:18.418Z,-1.30
2022-12-24T08:55:51.947Z,-1.30
2022-12-24T08:58:23.962Z,-1.20
2022-12-24T09:00:52.442Z,-1.40
2022-12-24T09:03:27.058Z,-1.40
2022-12-24T09:05:56.577Z,-1.60
2022-12-24T09:08:25.040Z,-1.40
2022-12-24T09:10:53.443Z,-1.40
2022-12-24T09:13:21.846Z,-1.40
2022-12-24T09:15:56.945Z,-1.40
2022-12-24T09:18:25.930Z,-1.40
2022-12-24T09:21:03.640Z,-1.40
2022-12-24T09:23:32.186Z,-1.40
2022-12-24T09:26:00.541Z,-1.00
2022-12-24T09:28:28.971Z,-1.20
2022-12-24T09:30:59.636Z,-1.20
2022-12-24T09:33:29.071Z,-1.20
2022-12-24T09:35:58.157Z,-1.00
2022-12-24T09:38:26.893Z,-1.20
2022-12-24T09:40:56.897Z,-1.20
2022-12-24T09:43:33.569Z,-1.20
2022-12-24T09:46:23.465Z,-1.00
2022-12-24T09:48:57.016Z,-1.20
2022-12-24T09:52:02.872Z,-0.90
2022-12-24T09:54:35.197Z,-0.70
2022-12-24T09:57:09.393Z,-0.80
2022-12-24T09:59:48.940Z,-0.90
2022-12-24T10:02:20.570Z,-0.80
2022-12-24T10:04:50.008Z,-1.10
2022-12-24T10:07:31.197Z,-0.70
2022-12-24T10:10:19.977Z,-1.00
2022-12-24T10:13:17.530Z,-0.90
2022-12-24T10:16:04.782Z,-0.80
2022-12-24T10:19:17.887Z,-1.10
2022-12-24T10:22:10.970Z,-1.00
2022-12-24T10:25:03.199Z,-1.20
2022-12-24T10:27:40.717Z,-1.20
2022-12-24T10:30:20.936Z,-1.00
2022-12-24T10:32:51.658Z,-1.20
2022-12-24T10:35:42.289Z,-1.30
2022-12-24T10:38:11.033Z,-1.00
2022-12-24T10:40:49.149Z,-1.20
2022-12-24T10:43:20.865Z,-0.90
2022-12-24T10:45:58.246Z,-1.00
2022-12-24T10:48:54.148Z,-1.20
2022-12-24T10:51:43.434Z,-1.20
2022-12-24T10:54:26.473Z,-1.00
2022-12-24T10:57:03.763Z,-1.20
2022-12-24T10:59:37.780Z,-1.30
2022-12-24T11:02:33.728Z,-1.20
2022-12-24T11:05:04.075Z,-1.20
2022-12-24T11:07:33.463Z,-1.20
2022-12-24T11:10:04.523Z,-1.00
2022-12-24T11:13:05.858Z,-1.20
2022-12-24T11:15:36.263Z,-0.90
2022-12-24T11:18:15.566Z,-1.00
2022-12-24T11:20:52.347Z,-1.00
2022-12-24T11:23:21.296Z,-1.00
2022-12-24T11:25:52.110Z,-1.00
2022-12-24T11:28:30.027Z,-1.00
2022-12-24T11:31:05.655Z,-1.10
2022-12-24T11:33:48.401Z,-0.70
2022-12-24T11:36:28.363Z,-1.00
2022-12-24T11:38:59.762Z,-1.00
2022-12-24T11:41:28.271Z,-1.20
2022-12-24T11:44:04.623Z,-1.10
2022-12-24T11:46:47.947Z,-0.90
2022-12-24T11:49:22.436Z,-1.10
2022-12-24T11:52:12.613Z,-0.80
2022-12-24T11:55:01.526Z,-1.20
2022-12-24T11:57:38.514Z,-1.20
2022-12-24T12:00:07.731Z,-1.30
2022-12-24T12:02:43.667Z,-1.10
2022-12-24T12:05:34.000Z,-1.30
2022-12-24T12:08:22.565Z,-0.80
2022-12-24T12:10:54.118Z,-1.00
2022-12-24T12:13:33.874Z,-1.20
2022-12-24T12:17:01.425Z,-0.80
2022-12-24T12:20:13.860Z,-0.90
2022-12-24T12:22:54.730Z,-0.70
2022-12-24T12:25:49.521Z,-0.80
2022-12-24T12:28:26.198Z,-1.00
2022-12-24T12:31:16.521Z,-1.00
2022-12-24T12:33:50.879Z,-1.00
2022-12-24T12:36:25.530Z,-1.00
2022-12-24T12:38:54.157Z,-1.00
2022-12-24T12:42:01.781Z,-1.00
2022-12-24T12:44:42.507Z,-1.00
2022-12-24T12:47:33.924Z,-1.00
2022-12-24T12:50:05.291Z,-1.00
2022-12-24T12:52:36.680Z,-1.00
2022-12-24T12:55:26.697Z,-1.00
2022-12-24T12:58:01.419Z,-1.20
2022-12-24T13:00:34.517Z,-0.80
2022-12-24T13:03:39.983Z,-1.20
2022-12-24T13:06:23.648Z,-1.20
2022-12-24T13:09:07.458Z,-1.20
2022-12-24T13:12:06.681Z,-1.00
2022-12-24T13:14:49.646Z,-1.20
2022-12-24T13:17:55.098Z,-1.20
2022-12-24T13:20:26.385Z,-1.20
2022-12-24T13:22:59.893Z,-1.30
2022-12-24T13:25:39.915Z,-1.00
2022-12-24T13:28:23.643Z,-1.10
2022-12-24T13:31:02.859Z,-1.00
2022-12-24T13:33:39.996Z,-1.10
2022-12-24T13:36:08.900Z,-1.30
2022-12-24T13:38:50.907Z,-0.90
2022-12-24T13:41:41.300Z,-1.30
2022-12-24T13:44:15.875Z,-1.00
2022-12-24T13:47:07.585Z,-1.00
2022-12-24T13:49:40.364Z,-1.20
2022-12-24T13:52:19.584Z,-1.30
2022-12-24T13:55:17.898Z,-0.80
2022-12-24T13:57:54.511Z,-1.00
2022-12-24T14:00:22.945Z,-1.00
2022-12-24T14:03:14.282Z,-1.10
2022-12-24T14:05:47.222Z,-1.00
2022-12-24T14:08:28.937Z,-1.00
2022-12-24T14:11:10.239Z,-1.00
2022-12-24T14:13:41.781Z,-1.00
2022-12-24T14:16:29.393Z,-1.00
2022-12-24T14:19:13.555Z,-1.00
2022-12-24T14:22:03.225Z,-1.00
2022-12-24T14:24:38.465Z,-1.00
2022-12-24T14:27:18.369Z,-1.20
2022-12-24T14:29:50.665Z,-0.90
2022-12-24T14:32:19.205Z,-1.00
2022-12-24T14:34:47.706Z,-1.00
2022-12-24T14:37:17.107Z,-1.20
2022-12-24T14:39:49.600Z,-0.70
2022-12-24T14:42:27.220Z,-0.70
2022-12-24T14:45:07.519Z,-1.00
2022-12-24T14:47:47.116Z,-1.00
2022-12-24T14:50:37.066Z,-1.00
2022-12-24T14:53:31.797Z,-1.20
2022-12-24T14:56:00.366Z,-1.20
2022-12-24T14:58:41.469Z,-0.90
2022-12-24T15:01:23.836Z,-1.10
2022-12-24T15:04:07.142Z,-1.10
2022-12-24T15:06:58.369Z,-0.90
2022-12-24T15:09:35.189Z,-0.90
2022-12-24T15:12:06.057Z,-0.80
2022-12-24T15:14:42.811Z,-1.00
2022-12-24T15:17:14.220Z,-1.30
2022-12-24T15:19:45.817Z,-1.20
2022-12-24T15:22:28.712Z,-1.30
2022-12-24T15:24:57.385Z,-1.20
2022-12-24T15:27:28.687Z,-1.10
2022-12-24T15:30:06.042Z,-1.10
2022-12-24T15:32:35.939Z,-1.20
2022-12-24T15:35:04.396Z,-1.30
2022-12-24T15:37:40.424Z,-1.30
2022-12-24T15:40:35.625Z,-1.30
2022-12-24T15:43:04.757Z,-1.20
2022-12-24T15:45:40.483Z,-1.10
2022-12-24T15:48:11.776Z,-1.00
2022-12-24T15:50:46.937Z,-0.80
2022-12-24T15:53:30.356Z,-0.90
2022-12-24T15:56:32.294Z,-1.10
2022-12-24T15:59:25.222Z,-0.70
2022-12-24T16:01:53.683Z,-1.00
2022-12-24T16:04:28.665Z,-0.80
2022-12-24T16:07:07.515Z,-1.10
2022-12-24T16:09:46.990Z,-0.70
2022-12-24T16:12:26.707Z,-0.90
2022-12-24T16:15:01.654Z,-0.90
2022-12-24T16:17:32.828Z,-1.00
2022-12-24T16:20:06.824Z,-1.00
2022-12-24T16:22:40.475Z,-1.10
2022-12-24T16:25:29.673Z,-0.90
2022-12-24T16:28:00.649Z,-1.00
2022-12-24T16:30:29.769Z,-0.80
2022-12-24T16:32:58.166Z,-0.80
2022-12-24T16:35:37.334Z,-1.00
2022-12-24T16:38:06.555Z,-0.90
2022-12-24T16:40:34.943Z,-0.80
2022-12-24T16:43:21.755Z,-1.00
2022-12-24T16:45:51.373Z,-0.90
2022-12-24T16:48:25.872Z,-0.90
2022-12-24T16:50:55.037Z,-0.90
2022-12-24T16:53:24.272Z,-0.90
2022-12-24T16:55:53.201Z,-0.90
2022-12-24T16:58:22.136Z,-0.50
2022-12-24T17:00:50.585Z,-0.60
2022-12-24T17:03:19.083Z,-0.70
2022-12-24T17:05:47.657Z,-0.70
2022-12-24T17:08:16.147Z,-0.80
2022-12-24T17:10:52.252Z,-0.70
2022-12-24T17:13:20.770Z,-0.50
2022-12-24T17:15:49.388Z,-0.70
2022-12-24T17:18:18.679Z,-0.80
2022-12-24T17:20:47.059Z,-0.60
2022-12-24T17:23:15.426Z,-0.50
2022-12-24T17:25:43.888Z,-0.50
2022-12-24T17:28:12.278Z,-0.40
2022-12-24T17:30:41.795Z,-0.70
2022-12-24T17:33:14.676Z,-0.80
2022-12-24T17:35:44.294Z,-0.50
2022-12-24T17:38:12.847Z,-0.50
2022-12-24T17:40:41.269Z,-0.50
2022-12-24T17:43:09.758Z,-0.50
2022-12-24T17:45:43.034Z,-0.50
2022-12-24T17:48:11.449Z,-0.50
2022-12-24T17:50:40.876Z,-0.50
2022-12-24T17:53:09.434Z,-0.60
2022-12-24T17:55:44.905Z,-0.60
2022-12-24T17:58:15.100Z,-0.50
2022-12-24T18:00:43.821Z,-0.60
2022-12-24T18:03:15.188Z,-0.60
2022-12-24T18:05:43.674Z,-0.60
2022-12-24T18:08:12.173Z,-0.30
2022-12-24T18:10:40.648Z,-0.50
2022-12-24T18:13:15.489Z,-0.50
2022-12-24T18:15:47.739Z,-0.50
2022-12-24T18:18:16.366Z,-0.50
2022-12-24T18:20:46.785Z,-0.50
2022-12-24T18:23:15.844Z,-0.50
2022-12-24T18:25:44.210Z,-0.50
2022-12-24T18:28:12.663Z,-0.30
2022-12-24T18:30:41.094Z,-0.30
2022-12-24T18:33:09.517Z,-0.30
2022-12-24T18:35:37.957Z,-0.30
2022-12-24T18:38:06.435Z,-0.20
2022-12-24T18:40:38.067Z,-0.20
2022-12-24T18:43:06.493Z,-0.30
2022-12-24T18:45:34.882Z,0.00
2022-12-24T18:48:03.265Z,-0.10
2022-12-24T18:50:31.654Z,-0.30
2022-12-24T18:53:00.031Z,0.00
2022-12-24T18:55:28.522Z,0.10
2022-12-24T18:57:57.183Z,0.00
2022-12-24T19:00:25.670Z,0.30
2022-12-24T19:02:54.114Z,0.50
2022-12-24T19:05:22.774Z,0.60
2022-12-24T19:07:51.143Z,0.50
2022-12-24T19:10:19.697Z,0.40
2022-12-24T19:12:48.156Z,0.50
2022-12-24T19:15:16.928Z,0.30
2022-12-24T19:17:45.329Z,0.50
2022-12-24T19:20:14.006Z,0.40
2022-12-24T19:22:42.383Z,0.20
2022-12-24T19:25:10.904Z,0.20
2022-12-24T19:27:39.315Z,0.50
2022-12-24T19:30:08.327Z,0.50
2022-12-24T19:32:36.703Z,0.40
2022-12-24T19:35:05.328Z,0.50
2022-12-24T19:37:33.718Z,0.40
2022-12-24T19:40:02.099Z,0.70
2022-12-24T19:42:31.501Z,0.50
2022-12-24T19:44:59.872Z,0.40
2022-12-24T19:47:28.853Z,0.20
2022-12-24T19:49:57.347Z,0.60
2022-12-24T19:52:25.720Z,0.80
2022-12-24T19:54:54.261Z,0.40
2022-12-24T19:57:22.917Z,0.50
2022-12-24T19:59:51.283Z,0.80
2022-12-24T20:02:19.813Z,0.60
2022-12-24T20:04:48.383Z,0.50
2022-12-24T20:07:16.749Z,0.40
2022-12-24T20:09:45.235Z,0.50
2022-12-24T20:12:13.659Z,0.40
2022-12-24T20:14:42.123Z,0.20
2022-12-24T20:17:10.649Z,0.50
2022-12-24T20:19:39.300Z,0.20
2022-12-24T20:22:07.721Z,0.00
2022-12-24T20:24:36.201Z,0.10
2022-12-24T20:27:04.740Z,0.00
2022-12-24T20:29:33.144Z,0.00
2022-12-24T20:32:01.683Z,0.30
2022-12-24T20:34:30.219Z,0.20
2022-12-24T20:36:58.621Z,0.70
2022-12-24T20:39:27.023Z,0.60
2022-12-24T20:41:55.497Z,0.80
2022-12-24T20:44:23.866Z,0.80
2022-12-24T20:46:52.255Z,0.70
2022-12-24T20:49:20.728Z,0.60
2022-12-24T20:51:49.087Z,0.90
2022-12-24T20:54:17.542Z,0.90
2022-12-24T20:56:46.002Z,1.00
2022-12-24T20:59:26.646Z,0.60
2022-12-24T21:01:55.429Z,0.80
2022-12-24T21:04:24.081Z,0.80
2022-12-24T21:06:52.565Z,0.80
2022-12-24T21:09:20.974Z,0.80
2022-12-24T21:11:51.988Z,0.80
2022-12-24T21:14:28.417Z,0.50
2022-12-24T21:16:56.927Z,0.40
2022-12-24T21:19:26.555Z,0.60
2022-12-24T21:21:55.915Z,0.80
2022-12-24T21:24:26.379Z,1.00
2022-12-24T21:26:54.816Z,1.00
2022-12-24T21:29:23.397Z,1.00
2022-12-24T21:31:51.766Z,0.90
2022-12-24T21:34:20.160Z,0.60
2022-12-24T21:36:48.692Z,0.60
2022-12-24T21:39:17.279Z,1.00
2022-12-24T21:41:45.746Z,0.90
2022-12-24T21:44:14.178Z,0.70
2022-12-24T21:46:42.702Z,0.80
2022-12-24T21:49:30.198Z,1.00
2022-12-24T21:52:00.367Z,0.80
2022-12-24T21:54:31.180Z,0.80
2022-12-24T21:57:31.687Z,0.80
2022-12-24T22:00:19.024Z,0.90
2022-12-24T22:02:48.275Z,0.80
2022-12-24T22:05:17.233Z,1.00
2022-12-24T22:08:03.952Z,1.00
2022-12-24T22:10:51.279Z,0.90
2022-12-24T22:13:19.963Z,0.90
2022-12-24T22:15:53.661Z,1.00
2022-12-24T22:18:24.607Z,0.90
2022-12-24T22:20:53.682Z,0.70
2022-12-24T22:23:22.064Z,0.70
2022-12-24T22:25:50.511Z,0.70
2022-12-24T22:28:20.251Z,1.00
2022-12-24T22:30:48.742Z,1.10
2022-12-24T22:33:17.392Z,1.20
2022-12-24T22:35:45.761Z,1.30
2022-12-24T22:38:14.120Z,1.30
2022-12-24T22:40:42.590Z,1.20
2022-12-24T22:43:11.497Z,1.50
2022-12-24T22:45:41.008Z,1.40
2022-12-24T22:48:09.538Z,1.40
2022-12-24T22:50:41.784Z,1.40
2022-12-24T22:53:10.199Z,1.30
2022-12-24T22:55:38.696Z,1.50
2022-12-24T22:58:07.228Z,1.40
2022-12-24T23:00:45.775Z,1.50
2022-12-24T23:03:14.625Z,1.50
2022-12-24T23:05:43.271Z,1.50
2022-12-24T23:08:13.139Z,1.30
2022-12-24T23:10:42.422Z,1.40
2022-12-24T23:13:32.300Z,1.60
2022-12-24T23:16:06.276Z,1.50
2022-12-24T23:18:35.542Z,1.50
2022-12-24T23:21:07.293Z,1.50
2022-12-24T23:23:37.374Z,1.50
2022-12-24T23:26:08.491Z,1.60
2022-12-24T23:28:37.711Z,1.50
2022-12-24T23:31:07.825Z,1.60
2022-12-24T23:33:36.646Z,1.70
2022-12-24T23:36:06.274Z,1.50
2022-12-24T23:38:35.108Z,1.40
2022-12-24T23:41:06.636Z,1.50
2022-12-24T23:43:35.960Z,1.30
2022-12-24T23:46:05.067Z,1.40
2022-12-24T23:48:33.620Z,1.50
2022-12-24T23:51:15.409Z,1.50
2022-12-24T23:53:44.056Z,1.40
2022-12-24T23:56:13.628Z,1.50
2022-12-24T23:58:43.641Z,1.50
